sensor_id;sensor_type;location;lat;lon;timestamp;pressure;altitude;pressure_sealevel;temperature;humidity
41636;BME280;27623;51.966;4.602;2023-04-28T00:01:37;64291.72;;;11.96;60.23
41636;BME280;27623;51.966;4.602;2023-04-28T00:04:02;64338.53;;;12.09;58.87
41636;BME280;27623;51.966;4.602;2023-04-28T00:06:28;64315.25;;;11.97;59.41
41636;BME280;27623;51.966;4.602;2023-04-28T00:08:55;64343.09;;;12.09;59.87
41636;BME280;27623;51.966;4.602;2023-04-28T00:11:20;64325.25;;;12.01;60.06
41636;BME280;27623;51.966;4.602;2023-04-28T00:13:45;64315.34;;;11.83;59.64
41636;BME280;27623;51.966;4.602;2023-04-28T00:16:11;64294.03;;;11.77;60.40
41636;BME280;27623;51.966;4.602;2023-04-28T00:18:36;64270.84;;;11.75;60.77
41636;BME280;27623;51.966;4.602;2023-04-28T00:21:01;64289.09;;;11.80;59.74
41636;BME280;27623;51.966;4.602;2023-04-28T00:23:27;64286.81;;;11.61;60.12
41636;BME280;27623;51.966;4.602;2023-04-28T00:25:53;64288.59;;;11.65;61.03
41636;BME280;27623;51.966;4.602;2023-04-28T00:28:19;64270.41;;;11.60;60.29
41636;BME280;27623;51.966;4.602;2023-04-28T00:30:45;64310.63;;;11.66;60.43
41636;BME280;27623;51.966;4.602;2023-04-28T00:33:11;64344.88;;;11.82;60.38
41636;BME280;27623;51.966;4.602;2023-04-28T00:35:36;64273.44;;;11.67;60.28
41636;BME280;27623;51.966;4.602;2023-04-28T00:38:04;64280.19;;;11.69;60.71
41636;BME280;27623;51.966;4.602;2023-04-28T00:40:37;64292.34;;;11.83;59.52
41636;BME280;27623;51.966;4.602;2023-04-28T00:43:03;64307.34;;;11.78;60.34
41636;BME280;27623;51.966;4.602;2023-04-28T00:45:29;64326.28;;;11.79;60.23
41636;BME280;27623;51.966;4.602;2023-04-28T00:47:55;64297.47;;;11.76;60.03
41636;BME280;27623;51.966;4.602;2023-04-28T00:50:22;64311.16;;;11.81;60.00
41636;BME280;27623;51.966;4.602;2023-04-28T00:52:51;64314.25;;;11.82;60.10
41636;BME280;27623;51.966;4.602;2023-04-28T00:55:17;64302.78;;;11.78;59.76
41636;BME280;27623;51.966;4.602;2023-04-28T00:57:43;64296.75;;;11.80;59.75
41636;BME280;27623;51.966;4.602;2023-04-28T01:00:09;64271.38;;;11.44;60.16
41636;BME280;27623;51.966;4.602;2023-04-28T01:02:35;64314.63;;;11.73;60.24
41636;BME280;27623;51.966;4.602;2023-04-28T01:05:01;64329.56;;;11.82;60.15
41636;BME280;27623;51.966;4.602;2023-04-28T01:07:28;64309.91;;;11.70;59.67
41636;BME280;27623;51.966;4.602;2023-04-28T01:09:54;64273.97;;;11.75;60.01
41636;BME280;27623;51.966;4.602;2023-04-28T01:12:20;64299.69;;;11.78;59.82
41636;BME280;27623;51.966;4.602;2023-04-28T01:14:45;64251.75;;;11.33;61.00
41636;BME280;27623;51.966;4.602;2023-04-28T01:17:11;64259.97;;;11.33;61.07
41636;BME280;27623;51.966;4.602;2023-04-28T01:19:36;64224.78;;;11.34;60.86
41636;BME280;27623;51.966;4.602;2023-04-28T01:22:02;64298.34;;;11.43;61.06
41636;BME280;27623;51.966;4.602;2023-04-28T01:24:28;64241.44;;;11.54;60.45
41636;BME280;27623;51.966;4.602;2023-04-28T01:26:54;64227.75;;;11.56;60.39
41636;BME280;27623;51.966;4.602;2023-04-28T01:29:19;64265.50;;;11.55;60.12
41636;BME280;27623;51.966;4.602;2023-04-28T01:31:44;64236.63;;;11.35;60.64
41636;BME280;27623;51.966;4.602;2023-04-28T01:34:10;64276.88;;;11.42;60.85
41636;BME280;27623;51.966;4.602;2023-04-28T01:36:35;64233.91;;;11.33;61.08
41636;BME280;27623;51.966;4.602;2023-04-28T01:39:00;64239.16;;;11.43;60.90
41636;BME280;27623;51.966;4.602;2023-04-28T01:41:28;64295.56;;;11.55;60.40
41636;BME280;27623;51.966;4.602;2023-04-28T01:43:54;64283.03;;;11.50;60.22
41636;BME280;27623;51.966;4.602;2023-04-28T01:46:19;64281.56;;;11.51;60.78
41636;BME280;27623;51.966;4.602;2023-04-28T01:48:44;64263.13;;;11.58;60.77
41636;BME280;27623;51.966;4.602;2023-04-28T01:51:10;64288.75;;;11.67;60.53
41636;BME280;27623;51.966;4.602;2023-04-28T01:53:35;64302.25;;;11.70;59.81
41636;BME280;27623;51.966;4.602;2023-04-28T01:56:01;64237.00;;;11.33;60.96
41636;BME280;27623;51.966;4.602;2023-04-28T01:58:26;64258.63;;;11.44;60.78
41636;BME280;27623;51.966;4.602;2023-04-28T02:00:52;64211.28;;;11.07;61.37
41636;BME280;27623;51.966;4.602;2023-04-28T02:03:19;64231.72;;;11.31;61.00
41636;BME280;27623;51.966;4.602;2023-04-28T02:05:45;64269.38;;;11.45;60.77
41636;BME280;27623;51.966;4.602;2023-04-28T02:08:12;64278.19;;;11.31;60.86
41636;BME280;27623;51.966;4.602;2023-04-28T02:10:38;64207.94;;;11.18;60.92
41636;BME280;27623;51.966;4.602;2023-04-28T02:13:03;64266.69;;;11.35;60.88
41636;BME280;27623;51.966;4.602;2023-04-28T02:15:28;64269.97;;;11.38;60.95
41636;BME280;27623;51.966;4.602;2023-04-28T02:17:54;64226.47;;;11.28;61.38
41636;BME280;27623;51.966;4.602;2023-04-28T02:20:20;64253.41;;;11.34;61.29
41636;BME280;27623;51.966;4.602;2023-04-28T02:22:45;64262.69;;;11.36;60.85
41636;BME280;27623;51.966;4.602;2023-04-28T02:25:10;64243.13;;;11.11;61.65
41636;BME280;27623;51.966;4.602;2023-04-28T02:27:38;64169.59;;;11.01;61.91
41636;BME280;27623;51.966;4.602;2023-04-28T02:30:04;64234.03;;;11.12;62.21
41636;BME280;27623;51.966;4.602;2023-04-28T02:32:30;64237.09;;;11.19;61.61
41636;BME280;27623;51.966;4.602;2023-04-28T02:34:57;64214.38;;;11.08;62.24
41636;BME280;27623;51.966;4.602;2023-04-28T02:37:23;64232.25;;;11.00;62.14
41636;BME280;27623;51.966;4.602;2023-04-28T02:39:48;64241.66;;;11.12;62.35
41636;BME280;27623;51.966;4.602;2023-04-28T02:42:13;64222.47;;;11.22;62.23
41636;BME280;27623;51.966;4.602;2023-04-28T02:44:42;64230.38;;;11.11;62.06
41636;BME280;27623;51.966;4.602;2023-04-28T02:47:08;64216.97;;;11.00;61.84
41636;BME280;27623;51.966;4.602;2023-04-28T02:49:33;64249.47;;;11.21;61.38
41636;BME280;27623;51.966;4.602;2023-04-28T02:51:58;64246.50;;;11.30;61.03
41636;BME280;27623;51.966;4.602;2023-04-28T02:54:24;64248.38;;;11.20;61.48
41636;BME280;27623;51.966;4.602;2023-04-28T02:56:57;64236.00;;;11.18;61.63
41636;BME280;27623;51.966;4.602;2023-04-28T02:59:23;64279.31;;;11.25;61.39
41636;BME280;27623;51.966;4.602;2023-04-28T03:01:51;64247.47;;;11.22;62.04
41636;BME280;27623;51.966;4.602;2023-04-28T03:04:16;64231.66;;;11.07;62.66
41636;BME280;27623;51.966;4.602;2023-04-28T03:06:42;64231.81;;;11.17;62.23
41636;BME280;27623;51.966;4.602;2023-04-28T03:09:08;64203.53;;;10.90;62.73
41636;BME280;27623;51.966;4.602;2023-04-28T03:11:37;64232.81;;;11.01;62.32
41636;BME280;27623;51.966;4.602;2023-04-28T03:14:02;64229.16;;;11.00;62.57
41636;BME280;27623;51.966;4.602;2023-04-28T03:16:28;64211.09;;;11.05;62.84
41636;BME280;27623;51.966;4.602;2023-04-28T03:18:53;64219.81;;;11.13;62.35
41636;BME280;27623;51.966;4.602;2023-04-28T03:21:18;64218.19;;;11.04;62.80
41636;BME280;27623;51.966;4.602;2023-04-28T03:23:46;64198.06;;;10.92;63.29
41636;BME280;27623;51.966;4.602;2023-04-28T03:26:11;64203.94;;;10.81;64.25
41636;BME280;27623;51.966;4.602;2023-04-28T03:28:37;64176.28;;;10.79;64.02
41636;BME280;27623;51.966;4.602;2023-04-28T03:31:02;64213.69;;;10.97;63.63
41636;BME280;27623;51.966;4.602;2023-04-28T03:33:28;64197.22;;;10.80;64.36
41636;BME280;27623;51.966;4.602;2023-04-28T03:35:53;64198.47;;;10.83;64.56
41636;BME280;27623;51.966;4.602;2023-04-28T03:38:19;64202.94;;;10.97;64.43
41636;BME280;27623;51.966;4.602;2023-04-28T03:40:44;64249.16;;;11.02;64.10
41636;BME280;27623;51.966;4.602;2023-04-28T03:43:12;64253.09;;;11.22;64.00
41636;BME280;27623;51.966;4.602;2023-04-28T03:45:40;64233.78;;;11.23;64.27
41636;BME280;27623;51.966;4.602;2023-04-28T03:48:06;64233.63;;;11.21;63.68
41636;BME280;27623;51.966;4.602;2023-04-28T03:50:32;64246.16;;;11.25;63.70
41636;BME280;27623;51.966;4.602;2023-04-28T03:52:57;64269.47;;;11.23;63.96
41636;BME280;27623;51.966;4.602;2023-04-28T03:55:22;64236.66;;;10.97;64.46
41636;BME280;27623;51.966;4.602;2023-04-28T03:57:48;64185.88;;;10.86;65.08
41636;BME280;27623;51.966;4.602;2023-04-28T04:00:13;64167.41;;;10.68;65.75
41636;BME280;27623;51.966;4.602;2023-04-28T04:02:39;64180.69;;;10.69;65.39
41636;BME280;27623;51.966;4.602;2023-04-28T04:05:05;64186.78;;;10.53;66.26
41636;BME280;27623;51.966;4.602;2023-04-28T04:07:30;64143.84;;;10.44;66.69
41636;BME280;27623;51.966;4.602;2023-04-28T04:09:55;64145.47;;;10.53;67.01
41636;BME280;27623;51.966;4.602;2023-04-28T04:12:21;64113.75;;;10.28;67.48
41636;BME280;27623;51.966;4.602;2023-04-28T04:14:46;64101.94;;;10.19;68.08
41636;BME280;27623;51.966;4.602;2023-04-28T04:17:12;64149.75;;;10.33;68.09
41636;BME280;27623;51.966;4.602;2023-04-28T04:19:37;64109.88;;;10.39;68.34
41636;BME280;27623;51.966;4.602;2023-04-28T04:22:02;64158.03;;;10.50;68.29
41636;BME280;27623;51.966;4.602;2023-04-28T04:24:28;64167.66;;;10.57;68.02
41636;BME280;27623;51.966;4.602;2023-04-28T04:26:53;64165.78;;;10.67;67.67
41636;BME280;27623;51.966;4.602;2023-04-28T04:29:18;64145.50;;;10.46;68.97
41636;BME280;27623;51.966;4.602;2023-04-28T04:31:43;64148.09;;;10.39;69.28
41636;BME280;27623;51.966;4.602;2023-04-28T04:34:12;64169.16;;;10.42;69.39
41636;BME280;27623;51.966;4.602;2023-04-28T04:36:37;64149.53;;;10.38;69.50
41636;BME280;27623;51.966;4.602;2023-04-28T04:39:02;64139.47;;;10.47;69.73
41636;BME280;27623;51.966;4.602;2023-04-28T04:41:30;64176.03;;;10.53;69.70
41636;BME280;27623;51.966;4.602;2023-04-28T04:43:55;64158.66;;;10.67;69.81
41636;BME280;27623;51.966;4.602;2023-04-28T04:46:21;64154.53;;;10.59;72.03
41636;BME280;27623;51.966;4.602;2023-04-28T04:48:46;64187.97;;;10.71;74.24
41636;BME280;27623;51.966;4.602;2023-04-28T04:51:12;64235.22;;;10.91;76.01
41636;BME280;27623;51.966;4.602;2023-04-28T04:53:37;64211.00;;;10.88;78.18
41636;BME280;27623;51.966;4.602;2023-04-28T04:56:03;64206.41;;;10.95;79.37
41636;BME280;27623;51.966;4.602;2023-04-28T04:58:29;64173.47;;;10.91;79.69
41636;BME280;27623;51.966;4.602;2023-04-28T05:00:54;64215.53;;;10.94;81.46
41636;BME280;27623;51.966;4.602;2023-04-28T05:03:20;64193.97;;;10.70;82.08
41636;BME280;27623;51.966;4.602;2023-04-28T05:05:46;64160.94;;;10.48;84.76
41636;BME280;27623;51.966;4.602;2023-04-28T05:08:12;64171.22;;;10.72;84.27
41636;BME280;27623;51.966;4.602;2023-04-28T05:10:39;64167.78;;;10.66;84.56
41636;BME280;27623;51.966;4.602;2023-04-28T05:13:05;64166.16;;;10.65;84.23
41636;BME280;27623;51.966;4.602;2023-04-28T05:15:31;64176.66;;;10.77;85.34
41636;BME280;27623;51.966;4.602;2023-04-28T05:17:56;64205.34;;;10.87;84.21
41636;BME280;27623;51.966;4.602;2023-04-28T05:20:22;64173.94;;;10.75;85.78
41636;BME280;27623;51.966;4.602;2023-04-28T05:22:48;64173.22;;;10.72;86.97
41636;BME280;27623;51.966;4.602;2023-04-28T05:25:13;64170.50;;;10.69;87.72
41636;BME280;27623;51.966;4.602;2023-04-28T05:27:39;64231.94;;;10.88;86.72
41636;BME280;27623;51.966;4.602;2023-04-28T05:30:07;64230.69;;;10.85;86.41
41636;BME280;27623;51.966;4.602;2023-04-28T05:32:33;64209.91;;;10.87;86.51
41636;BME280;27623;51.966;4.602;2023-04-28T05:34:59;64141.03;;;10.63;89.10
41636;BME280;27623;51.966;4.602;2023-04-28T05:37:27;64134.47;;;10.26;92.66
41636;BME280;27623;51.966;4.602;2023-04-28T05:39:53;64161.00;;;10.34;94.24
41636;BME280;27623;51.966;4.602;2023-04-28T05:42:19;64145.06;;;10.17;94.60
41636;BME280;27623;51.966;4.602;2023-04-28T05:44:44;64140.16;;;10.12;95.42
41636;BME280;27623;51.966;4.602;2023-04-28T05:47:10;64108.19;;;9.99;96.74
41636;BME280;27623;51.966;4.602;2023-04-28T05:49:36;64104.63;;;9.91;99.08
41636;BME280;27623;51.966;4.602;2023-04-28T05:52:02;64110.59;;;9.96;99.54
41636;BME280;27623;51.966;4.602;2023-04-28T05:54:28;64081.19;;;9.83;99.69
41636;BME280;27623;51.966;4.602;2023-04-28T05:56:55;64106.97;;;9.88;100.00
41636;BME280;27623;51.966;4.602;2023-04-28T05:59:22;64107.69;;;9.91;100.00
41636;BME280;27623;51.966;4.602;2023-04-28T06:01:47;64109.50;;;9.95;100.00
41636;BME280;27623;51.966;4.602;2023-04-28T06:04:14;64120.00;;;10.00;100.00
41636;BME280;27623;51.966;4.602;2023-04-28T06:06:40;64104.75;;;10.00;100.00
41636;BME280;27623;51.966;4.602;2023-04-28T06:09:05;64102.34;;;10.10;100.00
41636;BME280;27623;51.966;4.602;2023-04-28T06:11:31;64102.72;;;10.08;100.00
41636;BME280;27623;51.966;4.602;2023-04-28T06:13:58;64088.22;;;9.97;100.00
41636;BME280;27623;51.966;4.602;2023-04-28T06:16:24;64116.34;;;10.07;100.00
41636;BME280;27623;51.966;4.602;2023-04-28T06:18:49;64092.22;;;9.96;100.00
41636;BME280;27623;51.966;4.602;2023-04-28T06:21:18;64134.34;;;10.09;100.00
41636;BME280;27623;51.966;4.602;2023-04-28T06:23:45;64149.22;;;10.25;100.00
41636;BME280;27623;51.966;4.602;2023-04-28T06:26:11;64140.88;;;10.22;100.00
41636;BME280;27623;51.966;4.602;2023-04-28T06:28:37;64154.66;;;10.30;100.00
41636;BME280;27623;51.966;4.602;2023-04-28T06:31:02;64130.53;;;10.13;100.00
41636;BME280;27623;51.966;4.602;2023-04-28T06:33:30;64150.84;;;10.27;100.00
41636;BME280;27623;51.966;4.602;2023-04-28T06:35:55;64130.50;;;10.20;100.00
41636;BME280;27623;51.966;4.602;2023-04-28T06:38:21;64102.53;;;10.06;100.00
41636;BME280;27623;51.966;4.602;2023-04-28T06:40:46;64112.53;;;10.10;100.00
41636;BME280;27623;51.966;4.602;2023-04-28T06:43:11;64155.97;;;10.20;100.00
41636;BME280;27623;51.966;4.602;2023-04-28T06:45:37;64159.78;;;10.23;100.00
41636;BME280;27623;51.966;4.602;2023-04-28T06:48:08;64122.91;;;10.06;100.00
41636;BME280;27623;51.966;4.602;2023-04-28T06:50:35;64150.69;;;10.17;100.00
41636;BME280;27623;51.966;4.602;2023-04-28T06:53:01;64161.25;;;10.15;100.00
41636;BME280;27623;51.966;4.602;2023-04-28T06:55:29;64104.34;;;10.10;100.00
41636;BME280;27623;51.966;4.602;2023-04-28T06:57:57;64124.88;;;10.12;100.00
41636;BME280;27623;51.966;4.602;2023-04-28T07:00:24;64120.19;;;10.03;100.00
41636;BME280;27623;51.966;4.602;2023-04-28T07:02:50;64128.13;;;10.22;100.00
41636;BME280;27623;51.966;4.602;2023-04-28T07:05:16;64134.84;;;10.24;100.00
41636;BME280;27623;51.966;4.602;2023-04-28T07:07:41;64143.00;;;10.31;100.00
41636;BME280;27623;51.966;4.602;2023-04-28T07:10:07;64160.06;;;10.43;100.00
41636;BME280;27623;51.966;4.602;2023-04-28T07:12:32;64130.81;;;10.39;100.00
41636;BME280;27623;51.966;4.602;2023-04-28T07:14:58;64135.34;;;10.39;100.00
41636;BME280;27623;51.966;4.602;2023-04-28T07:17:23;64144.47;;;10.30;100.00
41636;BME280;27623;51.966;4.602;2023-04-28T07:19:49;64134.81;;;10.38;100.00
41636;BME280;27623;51.966;4.602;2023-04-28T07:22:15;64157.56;;;10.36;100.00
41636;BME280;27623;51.966;4.602;2023-04-28T07:24:41;64118.13;;;10.25;100.00
41636;BME280;27623;51.966;4.602;2023-04-28T07:27:09;64168.59;;;10.48;100.00
41636;BME280;27623;51.966;4.602;2023-04-28T07:29:34;64177.88;;;10.50;100.00
41636;BME280;27623;51.966;4.602;2023-04-28T07:32:01;64163.28;;;10.53;100.00
41636;BME280;27623;51.966;4.602;2023-04-28T07:34:30;64202.88;;;10.73;100.00
41636;BME280;27623;51.966;4.602;2023-04-28T07:36:58;64174.88;;;10.66;100.00
41636;BME280;27623;51.966;4.602;2023-04-28T07:39:24;64167.00;;;10.78;100.00
41636;BME280;27623;51.966;4.602;2023-04-28T07:41:49;64199.97;;;10.75;100.00
41636;BME280;27623;51.966;4.602;2023-04-28T07:44:15;64193.19;;;10.81;100.00
41636;BME280;27623;51.966;4.602;2023-04-28T07:46:40;64237.41;;;10.86;100.00
41636;BME280;27623;51.966;4.602;2023-04-28T07:49:05;64239.53;;;11.02;100.00
41636;BME280;27623;51.966;4.602;2023-04-28T07:51:32;64231.41;;;10.88;100.00
41636;BME280;27623;51.966;4.602;2023-04-28T07:53:58;64208.97;;;10.95;100.00
41636;BME280;27623;51.966;4.602;2023-04-28T07:56:23;64228.44;;;10.97;100.00
41636;BME280;27623;51.966;4.602;2023-04-28T07:58:50;64211.09;;;11.05;100.00
41636;BME280;27623;51.966;4.602;2023-04-28T08:01:18;64238.31;;;10.92;100.00
41636;BME280;27623;51.966;4.602;2023-04-28T08:03:43;64227.53;;;10.98;100.00
41636;BME280;27623;51.966;4.602;2023-04-28T08:06:09;64260.47;;;11.03;100.00
41636;BME280;27623;51.966;4.602;2023-04-28T08:08:34;64247.97;;;11.22;100.00
41636;BME280;27623;51.966;4.602;2023-04-28T08:11:00;64219.84;;;11.06;100.00
41636;BME280;27623;51.966;4.602;2023-04-28T08:13:28;64270.25;;;11.12;100.00
41636;BME280;27623;51.966;4.602;2023-04-28T08:15:56;64254.16;;;11.23;100.00
41636;BME280;27623;51.966;4.602;2023-04-28T08:18:24;64268.19;;;11.27;100.00
41636;BME280;27623;51.966;4.602;2023-04-28T08:20:49;64239.28;;;11.14;100.00
41636;BME280;27623;51.966;4.602;2023-04-28T08:23:15;64295.69;;;11.33;100.00
41636;BME280;27623;51.966;4.602;2023-04-28T08:25:40;64278.03;;;11.29;100.00
41636;BME280;27623;51.966;4.602;2023-04-28T08:28:06;64294.69;;;11.49;100.00
41636;BME280;27623;51.966;4.602;2023-04-28T08:30:33;64265.47;;;11.62;100.00
41636;BME280;27623;51.966;4.602;2023-04-28T08:32:58;64295.59;;;11.48;100.00
41636;BME280;27623;51.966;4.602;2023-04-28T08:35:23;64322.00;;;11.53;100.00
41636;BME280;27623;51.966;4.602;2023-04-28T08:37:51;64322.03;;;11.46;100.00
41636;BME280;27623;51.966;4.602;2023-04-28T08:40:16;64286.50;;;11.49;100.00
41636;BME280;27623;51.966;4.602;2023-04-28T08:42:45;64293.25;;;11.43;100.00
41636;BME280;27623;51.966;4.602;2023-04-28T08:45:14;64300.13;;;11.54;100.00
41636;BME280;27623;51.966;4.602;2023-04-28T08:47:41;64316.53;;;11.55;100.00
41636;BME280;27623;51.966;4.602;2023-04-28T08:50:13;64301.63;;;11.46;100.00
41636;BME280;27623;51.966;4.602;2023-04-28T08:52:39;64312.00;;;11.49;100.00
41636;BME280;27623;51.966;4.602;2023-04-28T08:55:10;64296.50;;;11.53;100.00
41636;BME280;27623;51.966;4.602;2023-04-28T08:57:38;64323.94;;;11.67;100.00
41636;BME280;27623;51.966;4.602;2023-04-28T09:00:05;64325.19;;;11.78;100.00
41636;BME280;27623;51.966;4.602;2023-04-28T09:02:30;64345.72;;;11.94;100.00
41636;BME280;27623;51.966;4.602;2023-04-28T09:04:56;64382.00;;;12.02;100.00
41636;BME280;27623;51.966;4.602;2023-04-28T09:07:21;64335.50;;;11.94;100.00
41636;BME280;27623;51.966;4.602;2023-04-28T09:09:49;64317.47;;;11.92;100.00
41636;BME280;27623;51.966;4.602;2023-04-28T09:12:17;64384.38;;;11.99;100.00
41636;BME280;27623;51.966;4.602;2023-04-28T09:14:42;64383.34;;;12.22;100.00
41636;BME280;27623;51.966;4.602;2023-04-28T09:17:12;64374.59;;;12.21;100.00
41636;BME280;27623;51.966;4.602;2023-04-28T09:19:39;64365.63;;;12.25;100.00
41636;BME280;27623;51.966;4.602;2023-04-28T09:22:07;64376.19;;;12.30;100.00
41636;BME280;27623;51.966;4.602;2023-04-28T09:24:35;64406.63;;;12.34;100.00
41636;BME280;27623;51.966;4.602;2023-04-28T09:27:02;64409.88;;;12.45;100.00
41636;BME280;27623;51.966;4.602;2023-04-28T09:29:29;64423.41;;;12.41;100.00
41636;BME280;27623;51.966;4.602;2023-04-28T09:32:18;64397.84;;;12.41;100.00
41636;BME280;27623;51.966;4.602;2023-04-28T09:34:44;64423.53;;;12.50;100.00
41636;BME280;27623;51.966;4.602;2023-04-28T09:37:16;64410.38;;;12.52;100.00
41636;BME280;27623;51.966;4.602;2023-04-28T09:39:46;64460.53;;;12.61;100.00
41636;BME280;27623;51.966;4.602;2023-04-28T09:42:41;64423.56;;;12.74;100.00
41636;BME280;27623;51.966;4.602;2023-04-28T09:45:09;64476.69;;;12.81;100.00
41636;BME280;27623;51.966;4.602;2023-04-28T09:47:40;64497.22;;;13.04;100.00
41636;BME280;27623;51.966;4.602;2023-04-28T09:50:07;64488.44;;;13.03;100.00
41636;BME280;27623;51.966;4.602;2023-04-28T09:52:38;64485.22;;;12.93;100.00
41636;BME280;27623;51.966;4.602;2023-04-28T09:55:06;64523.56;;;12.93;100.00
41636;BME280;27623;51.966;4.602;2023-04-28T09:57:35;64482.41;;;13.05;100.00
41636;BME280;27623;51.966;4.602;2023-04-28T10:00:02;64494.47;;;13.09;100.00
41636;BME280;27623;51.966;4.602;2023-04-28T10:02:30;64490.19;;;13.22;100.00
41636;BME280;27623;51.966;4.602;2023-04-28T10:04:56;64495.84;;;13.22;100.00
41636;BME280;27623;51.966;4.602;2023-04-28T10:07:22;64505.16;;;13.24;100.00
41636;BME280;27623;51.966;4.602;2023-04-28T10:09:50;64541.16;;;13.26;100.00
41636;BME280;27623;51.966;4.602;2023-04-28T10:12:16;64561.19;;;13.43;100.00
41636;BME280;27623;51.966;4.602;2023-04-28T10:14:45;64561.22;;;13.35;100.00
41636;BME280;27623;51.966;4.602;2023-04-28T10:17:12;64517.41;;;13.23;100.00
41636;BME280;27623;51.966;4.602;2023-04-28T10:19:40;64510.88;;;13.17;100.00
41636;BME280;27623;51.966;4.602;2023-04-28T10:27:40;64535.28;;;13.30;100.00
41636;BME280;27623;51.966;4.602;2023-04-28T10:30:17;64548.28;;;13.26;100.00
41636;BME280;27623;51.966;4.602;2023-04-28T10:32:43;64523.47;;;13.15;100.00
41636;BME280;27623;51.966;4.602;2023-04-28T10:42:55;64530.72;;;13.31;100.00
41636;BME280;27623;51.966;4.602;2023-04-28T10:56:23;64523.44;;;13.29;100.00
41636;BME280;27623;51.966;4.602;2023-04-28T10:58:59;64522.75;;;13.12;100.00
41636;BME280;27623;51.966;4.602;2023-04-28T11:01:29;64523.28;;;13.19;100.00
41636;BME280;27623;51.966;4.602;2023-04-28T11:04:06;64530.41;;;13.19;100.00
41636;BME280;27623;51.966;4.602;2023-04-28T11:06:41;64513.22;;;13.15;100.00
41636;BME280;27623;51.966;4.602;2023-04-28T11:17:19;64483.28;;;13.11;100.00
41636;BME280;27623;51.966;4.602;2023-04-28T11:19:59;64501.75;;;13.11;100.00
41636;BME280;27623;51.966;4.602;2023-04-28T11:22:25;64498.34;;;12.98;100.00
41636;BME280;27623;51.966;4.602;2023-04-28T11:24:58;64493.44;;;12.94;100.00
41636;BME280;27623;51.966;4.602;2023-04-28T11:27:24;64501.81;;;12.97;100.00
41636;BME280;27623;51.966;4.602;2023-04-28T11:29:50;64482.59;;;13.07;100.00
41636;BME280;27623;51.966;4.602;2023-04-28T11:32:15;64497.16;;;13.12;100.00
41636;BME280;27623;51.966;4.602;2023-04-28T11:34:41;64536.25;;;13.22;100.00
41636;BME280;27623;51.966;4.602;2023-04-28T11:37:06;64477.94;;;13.22;100.00
41636;BME280;27623;51.966;4.602;2023-04-28T11:39:33;64542.44;;;13.30;100.00
41636;BME280;27623;51.966;4.602;2023-04-28T11:42:08;64531.84;;;13.25;100.00
41636;BME280;27623;51.966;4.602;2023-04-28T11:44:34;64550.31;;;13.25;100.00
41636;BME280;27623;51.966;4.602;2023-04-28T11:47:01;64538.97;;;13.24;100.00
41636;BME280;27623;51.966;4.602;2023-04-28T11:49:28;64526.91;;;13.27;100.00
41636;BME280;27623;51.966;4.602;2023-04-28T11:51:55;64545.09;;;13.39;100.00
41636;BME280;27623;51.966;4.602;2023-04-28T11:54:22;64569.06;;;13.38;100.00
41636;BME280;27623;51.966;4.602;2023-04-28T11:56:48;64567.94;;;13.44;100.00
41636;BME280;27623;51.966;4.602;2023-04-28T11:59:14;64570.16;;;13.39;100.00
41636;BME280;27623;51.966;4.602;2023-04-28T12:01:50;64537.59;;;13.42;100.00
41636;BME280;27623;51.966;4.602;2023-04-28T12:04:45;64563.31;;;13.52;100.00
41636;BME280;27623;51.966;4.602;2023-04-28T12:07:12;64568.97;;;13.52;100.00
41636;BME280;27623;51.966;4.602;2023-04-28T12:09:39;64550.31;;;13.56;100.00
41636;BME280;27623;51.966;4.602;2023-04-28T12:12:13;64579.78;;;13.53;100.00
41636;BME280;27623;51.966;4.602;2023-04-28T12:19:49;64563.84;;;13.59;100.00
41636;BME280;27623;51.966;4.602;2023-04-28T12:22:15;64575.38;;;13.56;100.00
41636;BME280;27623;51.966;4.602;2023-04-28T12:24:41;64590.72;;;13.56;100.00
41636;BME280;27623;51.966;4.602;2023-04-28T12:27:15;64572.63;;;13.53;100.00
41636;BME280;27623;51.966;4.602;2023-04-28T12:29:41;64549.50;;;13.36;100.00
41636;BME280;27623;51.966;4.602;2023-04-28T12:32:09;64546.75;;;13.41;100.00
41636;BME280;27623;51.966;4.602;2023-04-28T12:34:36;64563.16;;;13.49;100.00
41636;BME280;27623;51.966;4.602;2023-04-28T12:37:02;64563.88;;;13.52;100.00
41636;BME280;27623;51.966;4.602;2023-04-28T12:39:31;64597.31;;;13.55;100.00
41636;BME280;27623;51.966;4.602;2023-04-28T12:42:00;64590.91;;;13.58;100.00
41636;BME280;27623;51.966;4.602;2023-04-28T12:44:26;64566.94;;;13.60;100.00
41636;BME280;27623;51.966;4.602;2023-04-28T12:46:53;64591.63;;;13.61;100.00
41636;BME280;27623;51.966;4.602;2023-04-28T12:49:19;64586.13;;;13.63;100.00
41636;BME280;27623;51.966;4.602;2023-04-28T12:51:45;64546.47;;;13.60;100.00
41636;BME280;27623;51.966;4.602;2023-04-28T12:54:10;64628.75;;;13.65;100.00
41636;BME280;27623;51.966;4.602;2023-04-28T12:56:35;64606.78;;;13.66;100.00
41636;BME280;27623;51.966;4.602;2023-04-28T12:59:01;64623.03;;;13.71;100.00
41636;BME280;27623;51.966;4.602;2023-04-28T13:01:27;64575.88;;;13.63;100.00
41636;BME280;27623;51.966;4.602;2023-04-28T13:03:53;64574.78;;;13.62;100.00
41636;BME280;27623;51.966;4.602;2023-04-28T13:06:19;64589.09;;;13.54;100.00
41636;BME280;27623;51.966;4.602;2023-04-28T13:08:44;64586.53;;;13.54;100.00
41636;BME280;27623;51.966;4.602;2023-04-28T13:11:10;64575.38;;;13.56;100.00
41636;BME280;27623;51.966;4.602;2023-04-28T13:13:35;64572.09;;;13.53;100.00
41636;BME280;27623;51.966;4.602;2023-04-28T13:16:02;64589.78;;;13.64;100.00
41636;BME280;27623;51.966;4.602;2023-04-28T13:18:29;64577.72;;;13.60;100.00
41636;BME280;27623;51.966;4.602;2023-04-28T13:20:54;64591.38;;;13.73;100.00
41636;BME280;27623;51.966;4.602;2023-04-28T13:23:20;64623.03;;;13.71;100.00
41636;BME280;27623;51.966;4.602;2023-04-28T13:25:45;64565.63;;;13.63;100.00
41636;BME280;27623;51.966;4.602;2023-04-28T13:28:11;64574.97;;;13.65;100.00
41636;BME280;27623;51.966;4.602;2023-04-28T13:30:39;64581.75;;;13.59;100.00